AirNav   Pilot Hours Calculator
 
 1332 users online  

KVLL Oakland/Troy Airport
Troy, Michigan, USA

GOING TO TROY?


FAA INFORMATION EFFECTIVE 07 NOVEMBER 2019

Location

FAA Identifier: VLL
Lat/Long: 42-32-34.6000N 083-10-40.4000W
42-32.576667N 083-10.673333W
42.5429444,-83.1778889
(estimated)
Elevation: 727.2 ft. / 221.7 m (surveyed)
Variation: 06W (1995)
From city: 2 miles E of TROY, MI
Time zone: UTC -5 (UTC -4 during Daylight Saving Time)
Zip code: 48084

Airport Operations

Airport use: Open to the public
Control tower: no
ARTCC: CLEVELAND CENTER
FSS: LANSING FLIGHT SERVICE STATION
NOTAMs facility: VLL (NOTAM-D service available)
Attendance: 0800-1800
Pattern altitude: 1727.2 ft. MSL
Wind indicator: lighted
Segmented circle: no
Lights: ACTVT MIRL RY 09/27 & PAPI RYS 09 & 27 - CTAF.
Beacon: white-green (lighted land airport)
Operates sunset to sunrise.
Landing fee: yes

Airport Communications

CTAF/UNICOM: 123.05
WX AWOS-3: 119.475 (248-288-4649)
DETROIT APPROACH: 134.3
DETROIT DEPARTURE: 134.3
WX ASOS at DET (11 nm SE): PHONE 313-371-9696
WX ASOS at PTK (13 nm NW): 125.025 (248-886-8551)

Nearby radio navigation aids

VOR radial/distance  VOR name  Freq  Var
SVMr069/20.1SALEM VORTAC114.3003W
DXOr029/21.5DETROIT VOR/DME113.4006W
YQGr325/23.4WINDSOR VOR/DME113.8006W
CRLr026/32.2CARLETON VOR/DME115.7003W
FNTr141/35.7FLINT VORTAC116.9006W

 
NDB name  Hdg/Dist  Freq  Var  ID
GROSSE ILE005/26.541907WRYS .-. -.-- ...

Airport Services

Fuel available: 100LL JET-A
Parking: tiedowns
Airframe service: NONE
Powerplant service: NONE

Runway Information

Runway 9/27

Dimensions: 3549 x 60 ft. / 1082 x 18 m
Surface: asphalt, in fair condition
Runway edge lights: medium intensity
RUNWAY 9  RUNWAY 27
Latitude: 42-32.575973N42-32.578848N
Longitude: 083-11.068925W083-10.278788W
Elevation: 727.0 ft.701.0 ft.
Traffic pattern: leftleft
Runway heading: 096 magnetic, 090 true276 magnetic, 270 true
Markings: nonprecision, in good conditionnonprecision, in good condition
Visual slope indicator: 2-light PAPI on right (3.75 degrees glide path)2-light PAPI on left (3.75 degrees glide path)
Runway end identifier lights: nono
Touchdown point: yes, no lightsyes, no lights
Obstructions: 19 ft. tree, 207 ft. from runway, 137 ft. right of centerline30 ft. tree, 200 ft. from runway, 125 ft. left of centerline

Airport Ownership and Management from official FAA records

Ownership: Publicly-owned
Owner: OAKLAND COUNTY
6500 HIGHLAND ROAD
WATERFORD, MI 48327
Phone (248) 288-6100
ARPT PHONE 248-666-3900
Manager: CHERYL BUSH
6500 HIGHLAND RD
WATERFORD, MI 48327
Phone 248-666-3900

Airport Operational Statistics

Aircraft based on the field: 120
Single engine airplanes: 109
Multi engine airplanes: 7
Helicopters: 3
Ultralights: 1
    
Aircraft operations: avg 82/day *
50% transient general aviation
50% local general aviation
* for 12-month period ending 31 December 2019

Additional Remarks

DEER AND BIRDS ON & INVOF ARPT.
RY 09 +3 FT BERM 316 FT FM THLD.
NO TGL OR PRACTICE TFC PATTERNS.
FOR CD CTC DETROIT APCH AT 800-499-8181.

Instrument Procedures

NOTE: All procedures below are presented as PDF files. If you need a reader for these files, you should download the free Adobe Reader.

NOT FOR NAVIGATION. Please procure official charts for flight.
FAA instrument procedures published for use from 07 November 2019 at 0901Z to 05 December 2019 at 0900Z.

 
STARs - Standard Terminal Arrivals
FOREY TWO (RNAV) **CHANGED**   download (153KB)
OKLND ONE (RNAV)   download (131KB)
PETTE TWO (RNAV) **CHANGED**   download (193KB)
RRALF TWO (RNAV) **CHANGED**   download (155KB)
 
IAPs - Instrument Approach Procedures
RNAV (GPS) RWY 09   download (163KB)
 
Departure Procedures
BARII TWO (RNAV)   download (139KB)
CCOBB TWO (RNAV)   download (185KB)
CLVIN TWO (RNAV)   download (153KB)
HHOWE TWO (RNAV)   download (169KB)
KAYLN TWO (RNAV)   download (149KB)
LIDDS TWO (RNAV)   download (162KB)
MIGGY TWO (RNAV)   download (181KB)
PAVYL TWO (RNAV)   download (160KB)
SNDRS TWO (RNAV)   download (195KB)
TRMML THREE (RNAV) **CHANGED**   download (145KB)
ZETTR TWO (RNAV)   download (184KB)
NOTE: Special Take-Off Minimums/Departure Procedures apply   download (125KB)

Other nearby airports with instrument procedures:

KDET - Coleman A Young Municipal Airport (11 nm SE)
KPTK - Oakland County International Airport (13 nm NW)
KMTC - Selfridge Air National Guard Base (16 nm E)
1D2 - Canton-Plymouth-Mettetal Airport (17 nm SW)
57D - Ray Community Airport (17 nm NE)
D98 - Romeo State Airport (18 nm NE)
Y47 - Oakland Southwest Airport (20 nm W)
 
Loc | Ops | Rwys | IFR | FBO | Links
Com | Nav | Svcs | Stats | Notes
Area around KVLL (Oakland/Troy Airport)
 
Road maps at: MapQuest Bing Google
 
Aerial photo
WARNING: Photo may not be current or correct
Aerial photo of KVLL (Oakland/Troy Airport)
Photo by Jeff Schuster
Photo taken 29-Jun-2014
looking west.

Do you have a better or more recent aerial photo of Oakland/Troy Airport that you would like to share? If so, please send us your photo.

 
Sectional chart

 
Airport distance calculator
Flying to Oakland/Troy Airport? Find the distance to fly.

From to KVLL

Sunrise and sunset
Times for 13-Nov-2019
 Local
(UTC-5)
 Zulu
(UTC)
Morning civil twilight06:5211:52
Sunrise07:2212:22
Sunset17:1222:12
Evening civil twilight17:4222:42

Current date and time
Zulu (UTC)  13-Nov-2019 21:17:10
Local (UTC-5)  13-Nov-2019 16:17:10
 
METAR
KVLL 132056Z AUTO 18009KT 10SM OVC090 M05/M11 A3025 RMK AO2 T10531112
KDET 
11nm SE 
132053Z 20009KT 10SM SCT090 OVC110 M06/M11 A3025 RMK AO2 SLP254 T10561106 58028
KPTK 
13nm NW 
132053Z 17010G16KT 10SM OVC090 M07/M13 A3018 RMK AO2 SLP238 T10671133 58032
KMTC 
17nm E 
132056Z 20010KT 10SM VCSH FEW030 OVC080 M06/M12 A3025 RMK SLP258 WND DATA ESTMD ALSTG/SLP ESTMD 57030
CYQG 
19nm SE 
132000Z AUTO 19012G18KT 9SM BKN080 OVC091 M05/M10 A3027 RMK PRESFR SLP265
KDTW 
20nm S 
132053Z 18008KT 10SM FEW035 SCT110 OVC130 M06/M12 A3024 RMK AO2 SLP253 T10611122 56032
TAF
KDET 
11nm SE 
131720Z 1318/1418 19011KT P6SM OVC120 FM140200 20007KT P6SM OVC060
KPTK 
13nm NW 
131720Z 1318/1418 19011KT P6SM OVC120 FM140200 20007KT P6SM OVC030 PROB30 1407/1410 6SM -SHSN
KMTC 
17nm E 
131700Z 1317/1423 19010G15KT 9999 BKN070 620709 QNH3012INS BECMG 1403/1404 21010G18KT 4800 -SN SCT006 BKN010 OVC070 620102 620709 QNH3010INS BECMG 1408/1409 22009KT 2400 -SN SCT006 OVC010 620109 QNH3006INS BECMG 1413/1414 23009KT 9999 NSW FEW006 BKN020 620209 QNH3014INS TX00/1417Z TNM10/1317Z
CYQG 
19nm SE 
131740Z 1318/1418 22010G20KT P6SM SCT015 BKN130 TEMPO 1318/1323 BKN015 OVC130 FM132300 19010G20KT P6SM OVC100 FM140400 23010KT P6SM -SN SCT040 OVC080 TEMPO 1404/1409 21/2SM -SN OVC040 FM140900 24008KT P6SM -SN BKN050 FM141600 23010KT P6SM BKN015 OVC030 RMK FCST BASED ON AUTO OBS. NXT FCST BY 140000Z
KDTW 
20nm S 
131720Z 1318/1424 19011KT P6SM OVC120 FM140200 20007KT P6SM OVC060 FM142000 23006KT 5SM BR OVC020
NOTAMs
Click for the latest NOTAMs
NOTAMs are issued by the DoD/FAA and will open in a separate window not controlled by AirNav.

 

 
 

FBO, Fuel Providers, and Aircraft Ground Support

  
 Business Name 
 
 Contact 
 
 Services / Description 
 
Fuel Prices
 
Comments
  
JDS Pump-N-Go 248-288-6100
[email]
Aviation fuel, Aircraft parking (ramp or tiedown), Hangar leasing / sales

More info about JDS Pump-N-Go
Avfuel
100LL Jet A
SS $5.40 $4.40 
 Updated 12-Nov-2019
 
   write
SS=Self service
Update Fuel Prices
 

Would you like to see your business listed on this page?

 If your business provides an interesting product or service to pilots, flight crews, aircraft, or users of the Oakland/Troy Airport, you should consider listing it here.  To start the listing process, click on the button below
 
Add a business
 

Other Pages about Oakland/Troy Airport

Oakland/Troy Airport Website
Page from the Michigan Airport Directory (PDF)
 
Update a link
 
Copyright © AirNav, LLC. All rights reserved. Privacy Policy  Contact